Augusta, Kentucky
Current Conditions -  °F | °C
As of 1:55 AM on Saturday 25 Oct 2014 (Local Time) from KFGX Reporting Station
Clear Clear  
Wind Chill: 45°   Ceiling: Unl
Heat Index: 47°   Visibility: 10mi
Dew Point: 40°   Wind: 5mph
Humidity: 77%   Direction: 210°SSW
Pressure: 30.06"   Gusts: NA
Location:  38.77°N, 84.01°W
Report Text: KFGX 250555Z AUTO 21004KT 10SM CLR 09/05 A3006 RMK AO2 T00850046 10120 20078 401830029
Loading
Personal Weather Stations






























Interactive Weather Map
Tropical Storm Tracking
New forecast layout! Learn more

10-Day Weather Forecast

Advertisements
Track Severe Weather on mobile